Time;durP1;ratioP1;P1;durP2;ratioP2;P2;SDS_P1;SDS_P2;PMS_P1;PMS_P2;Temp;Humidity;BMP_temperature;BMP_pressure;BME280_temperature;BME280_humidity;BME280_pressure;Samples;Min_cycle;Max_cycle;Signal;HPM_P1;HPM_P2
2023/08/25 00:00:30;;;;;;;45.10;24.30;;;18.60;99.90;;;;;;5042807;28;20126;-76
2023/08/25 00:02:55;;;;;;;44.85;23.40;;;18.60;99.90;;;;;;5025234;28;20065;-76
2023/08/25 00:05:21;;;;;;;46.60;22.85;;;18.60;99.90;;;;;;5024604;28;20045;-75
2023/08/25 00:07:46;;;;;;;44.38;23.45;;;18.60;99.90;;;;;;5042738;28;20053;-76
2023/08/25 00:10:13;;;;;;;47.25;24.40;;;18.60;99.90;;;;;;5024809;28;20434;-75
2023/08/25 00:12:39;;;;;;;48.38;22.75;;;18.60;99.90;;;;;;5024089;28;20053;-77
2023/08/25 00:15:05;;;;;;;44.53;22.15;;;18.60;99.90;;;;;;5025657;28;20103;-76
2023/08/25 00:17:32;;;;;;;50.25;23.00;;;18.60;99.90;;;;;;5046302;28;20060;-76
2023/08/25 00:19:58;;;;;;;47.65;20.73;;;18.50;99.90;;;;;;5028367;28;20149;-76
2023/08/25 00:22:24;;;;;;;46.75;22.38;;;18.60;99.90;;;;;;5045790;28;20448;-76
2023/08/25 00:24:52;;;;;;;49.72;22.77;;;18.50;99.90;;;;;;5028881;28;20045;-75
2023/08/25 00:27:18;;;;;;;47.42;25.13;;;18.50;99.90;;;;;;5027277;28;20098;-76
2023/08/25 00:29:44;;;;;;;50.45;23.73;;;18.50;99.90;;;;;;5045214;28;20077;-76
2023/08/25 00:32:10;;;;;;;48.95;22.00;;;18.50;99.90;;;;;;5027858;28;20126;-76
2023/08/25 00:34:35;;;;;;;47.78;22.67;;;18.50;99.90;;;;;;5029119;28;20052;-76
2023/08/25 00:37:01;;;;;;;53.25;23.35;;;18.50;99.90;;;;;;5027159;28;20049;-76
2023/08/25 00:39:27;;;;;;;48.10;24.58;;;18.60;99.90;;;;;;5027942;28;21309;-76
2023/08/25 00:41:54;;;;;;;43.97;23.05;;;18.50;99.90;;;;;;5046007;28;20033;-75
2023/08/25 00:44:20;;;;;;;52.13;24.25;;;18.50;99.90;;;;;;5044435;28;20072;-76
2023/08/25 00:46:46;;;;;;;49.45;23.65;;;18.50;99.90;;;;;;5046239;28;20584;-76
2023/08/25 00:49:13;;;;;;;49.95;23.52;;;18.50;99.90;;;;;;5046036;28;20091;-76
2023/08/25 00:51:39;;;;;;;49.33;24.15;;;18.50;99.90;;;;;;5045064;28;20083;-76
2023/08/25 00:54:06;;;;;;;53.38;25.08;;;18.50;99.90;;;;;;5028886;28;20045;-75
2023/08/25 00:56:32;;;;;;;51.83;25.25;;;18.50;99.90;;;;;;5027648;28;20129;-76
2023/08/25 00:58:58;;;;;;;58.85;24.05;;;18.50;99.90;;;;;;5045089;28;20414;-75
2023/08/25 01:01:24;;;;;;;56.28;23.70;;;18.50;99.90;;;;;;5045856;28;20044;-76
2023/08/25 01:03:49;;;;;;;57.58;22.75;;;18.50;99.90;;;;;;5027143;28;20597;-76
2023/08/25 01:06:15;;;;;;;62.85;24.10;;;18.50;99.90;;;;;;5045119;28;20116;-76
2023/08/25 01:08:42;;;;;;;56.47;23.65;;;18.50;99.90;;;;;;5027887;28;20041;-76
2023/08/25 01:11:35;;;;;;;56.05;23.70;;;18.50;99.90;;;;;;5045460;28;20087;-77
2023/08/25 01:14:20;;;;;;;62.97;24.05;;;18.50;99.90;;;;;;5023234;28;20065;-76
2023/08/25 01:16:58;;;;;;;60.70;24.08;;;18.50;99.90;;;;;;5025587;28;20123;-76
2023/08/25 01:19:33;;;;;;;59.25;24.00;;;18.60;99.90;;;;;;5023359;28;20408;-75
2023/08/25 01:22:00;;;;;;;61.13;23.65;;;18.50;99.90;;;;;;5024076;28;20045;-75
2023/08/25 01:24:30;;;;;;;72.25;27.67;;;18.60;99.90;;;;;;5023924;28;20080;-76
2023/08/25 01:26:56;;;;;;;65.40;24.67;;;18.60;99.90;;;;;;5023746;28;20053;-76
2023/08/25 01:29:22;;;;;;;66.05;25.30;;;18.50;99.90;;;;;;5023404;28;20592;-76
2023/08/25 01:31:47;;;;;;;63.55;26.13;;;18.60;99.90;;;;;;5024165;28;20052;-75
2023/08/25 01:34:13;;;;;;;70.13;24.38;;;18.60;99.90;;;;;;5023637;28;20077;-76
2023/08/25 01:36:54;;;;;;;68.30;25.27;;;18.60;99.90;;;;;;5025530;28;20045;-76
2023/08/25 01:39:21;;;;;;;;;;;18.60;99.90;;;;;;5025470;28;20531;-75
2023/08/25 01:41:54;;;;;;;64.85;24.13;;;18.60;99.90;;;;;;5023720;28;20306;-76
2023/08/25 01:44:21;;;;;;;67.43;25.65;;;18.60;99.90;;;;;;5006208;28;20052;-76
2023/08/25 01:46:54;;;;;;;71.10;25.60;;;18.60;99.90;;;;;;5024302;28;20492;-76
2023/08/25 01:49:22;;;;;;;64.65;26.83;;;18.60;99.90;;;;;;5024745;28;20045;-75
2023/08/25 01:51:48;;;;;;;66.90;25.50;;;18.60;99.90;;;;;;5024266;28;20057;-75
2023/08/25 01:54:13;;;;;;;74.13;28.27;;;18.60;99.90;;;;;;5024386;28;20044;-76
2023/08/25 01:56:39;;;;;;;69.95;27.23;;;18.60;99.90;;;;;;5025169;28;20053;-76
2023/08/25 01:59:05;;;;;;;69.28;26.83;;;18.50;99.90;;;;;;5024480;28;20075;-75
2023/08/25 02:01:30;;;;;;;69.38;27.83;;;18.50;99.90;;;;;;5023013;28;20045;-75
2023/08/25 02:03:57;;;;;;;71.38;29.38;;;18.60;99.90;;;;;;5024720;28;20115;-75
2023/08/25 02:06:22;;;;;;;80.78;28.20;;;18.60;99.90;;;;;;5024281;28;20056;-76
2023/08/25 02:08:48;;;;;;;74.72;27.40;;;18.60;99.90;;;;;;5024216;28;20381;-76
2023/08/25 02:11:13;;;;;;;79.38;29.63;;;18.60;99.90;;;;;;5006264;28;20088;-76
2023/08/25 02:13:39;;;;;;;68.97;27.58;;;18.60;99.90;;;;;;5022480;28;20412;-76
2023/08/25 02:16:05;;;;;;;85.28;29.90;;;18.60;99.90;;;;;;5025023;28;20046;-76
2023/08/25 02:18:31;;;;;;;86.68;31.40;;;18.60;99.90;;;;;;5024106;28;20144;-75
2023/08/25 02:20:56;;;;;;;78.90;30.00;;;18.60;99.90;;;;;;5025378;28;20057;-76
2023/08/25 02:23:23;;;;;;;94.20;30.88;;;18.60;99.90;;;;;;5023705;28;20038;-75
2023/08/25 02:25:49;;;;;;;84.78;30.73;;;18.60;99.90;;;;;;5024743;28;20088;-76
2023/08/25 02:28:14;;;;;;;84.38;31.02;;;18.60;99.90;;;;;;5023456;28;20424;-76
2023/08/25 02:30:40;;;;;;;108.10;33.53;;;18.60;99.90;;;;;;5023033;28;20530;-76
2023/08/25 02:33:06;;;;;;;91.30;28.65;;;18.60;99.90;;;;;;5023886;28;20041;-75
2023/08/25 02:35:32;;;;;;;89.82;29.48;;;18.60;99.90;;;;;;5023598;28;20404;-75
2023/08/25 02:38:06;;;;;;;95.22;29.40;;;18.60;99.90;;;;;;5023443;28;20054;-76
2023/08/25 02:40:33;;;;;;;90.57;29.08;;;18.60;99.90;;;;;;5006012;28;20042;-76
2023/08/25 02:43:00;;;;;;;93.22;32.88;;;18.60;99.90;;;;;;5023522;28;20081;-76
2023/08/25 02:45:27;;;;;;;96.40;31.55;;;18.60;99.90;;;;;;5022814;28;20566;-76
2023/08/25 02:47:53;;;;;;;114.80;36.28;;;18.60;99.90;;;;;;5024055;28;20122;-75
2023/08/25 02:50:20;;;;;;;113.25;35.33;;;18.60;99.90;;;;;;5022680;28;20037;-76
2023/08/25 02:52:45;;;;;;;107.00;32.63;;;18.60;99.90;;;;;;5024039;28;20049;-76
2023/08/25 02:55:14;;;;;;;112.63;31.88;;;18.60;99.90;;;;;;5023874;28;20098;-76
2023/08/25 02:57:41;;;;;;;111.72;33.40;;;18.60;99.90;;;;;;5023181;28;20041;-76
2023/08/25 03:00:09;;;;;;;130.07;38.72;;;18.60;99.90;;;;;;5024397;28;20056;-75
2023/08/25 03:02:34;;;;;;;124.60;34.35;;;18.60;99.90;;;;;;5006136;28;20103;-76
2023/08/25 03:05:00;;;;;;;118.75;35.25;;;18.60;99.90;;;;;;5023975;28;20045;-76
2023/08/25 03:07:25;;;;;;;115.30;34.42;;;18.60;99.90;;;;;;5021810;28;20132;-76
2023/08/25 03:09:51;;;;;;;122.10;35.92;;;18.60;99.90;;;;;;5022573;28;20064;-76
2023/08/25 03:12:17;;;;;;;116.30;36.92;;;18.60;99.90;;;;;;5022779;28;20554;-76
2023/08/25 03:14:42;;;;;;;119.53;35.42;;;18.60;99.90;;;;;;5022318;28;20129;-76
2023/08/25 03:17:09;;;;;;;109.28;36.65;;;18.60;99.90;;;;;;5022166;28;20040;-76
2023/08/25 03:19:37;;;;;;;127.97;36.25;;;18.60;99.90;;;;;;5023855;28;20057;-76
2023/08/25 03:22:03;;;;;;;115.75;37.60;;;18.60;99.90;;;;;;5022899;28;20053;-76
2023/08/25 03:24:28;;;;;;;133.40;37.20;;;18.60;99.90;;;;;;5022068;28;20052;-76
2023/08/25 03:26:56;;;;;;;121.55;34.33;;;18.60;99.90;;;;;;5022835;28;20033;-76
2023/08/25 03:29:22;;;;;;;115.50;36.67;;;18.60;99.90;;;;;;5022198;28;20037;-76
2023/08/25 03:31:47;;;;;;;120.75;36.20;;;18.60;99.90;;;;;;5022401;28;20368;-76
2023/08/25 03:34:13;;;;;;;127.25;38.08;;;18.60;99.90;;;;;;5021941;28;20172;-77
2023/08/25 03:36:39;;;;;;;109.15;34.88;;;18.60;99.90;;;;;;5023197;28;20391;-76
2023/08/25 03:39:04;;;;;;;124.13;37.58;;;18.60;99.90;;;;;;5023484;28;20044;-75
2023/08/25 03:41:31;;;;;;;112.80;35.63;;;18.60;99.90;;;;;;5022273;28;20396;-75
2023/08/25 03:43:56;;;;;;;142.18;39.30;;;18.60;99.90;;;;;;5022517;28;20041;-76
2023/08/25 03:46:22;;;;;;;129.65;38.05;;;18.60;99.90;;;;;;5022381;28;20490;-76
2023/08/25 03:48:47;;;;;;;123.40;38.33;;;18.60;99.90;;;;;;5006003;28;20046;-76
2023/08/25 03:51:13;;;;;;;127.97;39.20;;;18.60;99.90;;;;;;5024774;28;20041;-76
2023/08/25 03:53:39;;;;;;;120.10;37.00;;;18.60;99.90;;;;;;5027207;28;20052;-76
2023/08/25 03:56:04;;;;;;;126.20;34.88;;;18.60;99.90;;;;;;5026195;28;20081;-76
2023/08/25 03:58:30;;;;;;;111.32;36.58;;;18.60;99.90;;;;;;5025630;28;20040;-76
2023/08/25 04:00:56;;;;;;;114.47;36.08;;;18.60;99.90;;;;;;5027263;28;20042;-76
2023/08/25 04:03:22;;;;;;;121.70;38.05;;;18.60;99.90;;;;;;5024941;28;20045;-76
2023/08/25 04:05:48;;;;;;;116.32;38.10;;;18.60;99.90;;;;;;5027034;28;20034;-75
2023/08/25 04:08:14;;;;;;;116.63;36.55;;;18.60;99.90;;;;;;5026727;28;20037;-76
2023/08/25 04:10:41;;;;;;;108.45;36.72;;;18.60;99.90;;;;;;5026763;28;20103;-77
2023/08/25 04:13:07;;;;;;;113.80;37.03;;;18.50;99.90;;;;;;5027600;28;20276;-76
2023/08/25 04:15:33;;;;;;;113.90;34.92;;;18.60;99.90;;;;;;5018080;28;20133;-76
2023/08/25 04:17:59;;;;;;;121.20;37.40;;;18.60;99.90;;;;;;5041231;28;20135;-76
2023/08/25 04:20:25;;;;;;;122.35;38.25;;;18.60;99.90;;;;;;5027846;28;20055;-76
2023/08/25 04:22:50;;;;;;;127.18;37.78;;;18.60;99.90;;;;;;5046561;28;20752;-76
2023/08/25 04:25:16;;;;;;;111.47;36.92;;;18.60;99.90;;;;;;5045627;28;20048;-76
2023/08/25 04:27:42;;;;;;;109.68;34.88;;;18.60;99.90;;;;;;5043979;28;20605;-77
2023/08/25 04:30:08;;;;;;;124.68;38.10;;;18.60;99.90;;;;;;5042464;28;20076;-77
2023/08/25 04:32:33;;;;;;;117.82;38.35;;;18.60;99.90;;;;;;5022030;28;20619;-76
2023/08/25 04:34:59;;;;;;;130.45;39.35;;;18.60;99.90;;;;;;5042372;28;20045;-75
2023/08/25 04:37:25;;;;;;;126.07;39.25;;;18.60;99.90;;;;;;5044835;28;20048;-76
2023/08/25 04:39:52;;;;;;;110.88;36.75;;;18.60;99.90;;;;;;5023606;28;20064;-76
2023/08/25 04:42:18;;;;;;;109.57;39.08;;;18.60;99.90;;;;;;5038685;28;20041;-75
2023/08/25 04:44:44;;;;;;;112.22;37.90;;;18.60;99.90;;;;;;5038423;28;20041;-76
2023/08/25 04:47:09;;;;;;;107.30;36.55;;;18.50;99.90;;;;;;5020840;28;20037;-77
2023/08/25 04:49:35;;;;;;;95.38;36.25;;;18.60;99.90;;;;;;5040937;28;20086;-73
2023/08/25 04:52:01;;;;;;;102.43;35.00;;;18.60;99.90;;;;;;5045242;28;20037;-73
2023/08/25 04:54:27;;;;;;;111.60;37.38;;;18.60;99.90;;;;;;5044078;28;20057;-72
2023/08/25 04:56:52;;;;;;;100.70;35.28;;;18.60;99.90;;;;;;5044384;28;20049;-73
2023/08/25 04:59:20;;;;;;;91.95;32.85;;;18.60;99.90;;;;;;5043257;28;20052;-72
2023/08/25 05:01:46;;;;;;;97.20;33.13;;;18.60;99.90;;;;;;5026866;28;20171;-72
2023/08/25 05:04:12;;;;;;;88.93;34.85;;;18.60;99.90;;;;;;5036723;28;20136;-70
2023/08/25 05:06:37;;;;;;;81.05;34.88;;;18.60;99.90;;;;;;5027746;28;20514;-75
2023/08/25 05:09:03;;;;;;;80.97;33.15;;;18.60;99.90;;;;;;5043768;28;20048;-72
2023/08/25 05:11:29;;;;;;;92.18;33.17;;;18.60;99.90;;;;;;5024922;28;20048;-73
2023/08/25 05:13:55;;;;;;;76.20;32.30;;;18.60;99.90;;;;;;5031840;28;20503;-72
2023/08/25 05:16:20;;;;;;;85.53;31.20;;;18.50;99.90;;;;;;5044826;28;20112;-71
2023/08/25 05:18:46;;;;;;;92.13;34.22;;;18.60;99.90;;;;;;5044997;28;20052;-73
2023/08/25 05:21:14;;;;;;;77.70;30.92;;;18.60;99.90;;;;;;5043619;28;20077;-72
2023/08/25 05:23:46;;;;;;;66.00;29.83;;;18.50;99.90;;;;;;5044932;28;20033;-73
2023/08/25 05:26:15;;;;;;;69.88;30.15;;;18.50;99.90;;;;;;5044382;28;20049;-74
2023/08/25 05:28:43;;;;;;;67.53;29.20;;;18.50;99.90;;;;;;5025339;28;20391;-73
2023/08/25 05:31:09;;;;;;;67.78;29.55;;;18.50;99.90;;;;;;5009990;28;20037;-73
2023/08/25 05:33:35;;;;;;;70.93;29.60;;;18.60;99.90;;;;;;5026978;28;20442;-72
2023/08/25 05:36:02;;;;;;;67.72;30.33;;;18.50;99.90;;;;;;5027022;28;20053;-73
2023/08/25 05:38:27;;;;;;;74.75;30.55;;;18.60;99.90;;;;;;5044282;28;20122;-72
2023/08/25 05:40:53;;;;;;;70.97;30.05;;;18.60;99.90;;;;;;5025892;28;20037;-72
2023/08/25 05:43:19;;;;;;;69.07;29.40;;;18.60;99.90;;;;;;5038574;28;20053;-73
2023/08/25 05:45:44;;;;;;;64.78;28.95;;;18.60;99.90;;;;;;5036335;28;20395;-72
2023/08/25 05:48:10;;;;;;;65.93;28.35;;;18.60;99.90;;;;;;5008971;28;20041;-73
2023/08/25 05:50:36;;;;;;;62.92;26.05;;;18.60;99.90;;;;;;5044189;28;20059;-72
2023/08/25 05:53:02;;;;;;;56.10;24.98;;;18.60;99.90;;;;;;5041860;28;20040;-72
2023/08/25 05:55:28;;;;;;;53.50;25.02;;;18.60;99.90;;;;;;5026185;28;20041;-73
2023/08/25 05:57:53;;;;;;;46.30;23.08;;;18.60;99.90;;;;;;5024704;28;20041;-71
2023/08/25 06:00:19;;;;;;;46.67;22.75;;;18.60;99.90;;;;;;5043689;28;20414;-72
2023/08/25 06:02:45;;;;;;;49.20;21.25;;;18.60;99.90;;;;;;5026089;28;20075;-72
2023/08/25 06:05:11;;;;;;;44.22;21.05;;;18.60;99.90;;;;;;5043181;28;20048;-72
2023/08/25 06:07:36;;;;;;;40.05;20.42;;;18.60;99.90;;;;;;5044194;28;20051;-73
2023/08/25 06:10:02;;;;;;;39.05;19.55;;;18.60;99.90;;;;;;5008726;28;20055;-72
2023/08/25 06:12:28;;;;;;;40.33;20.00;;;18.60;99.90;;;;;;5042444;28;20041;-73
2023/08/25 06:14:54;;;;;;;38.20;19.65;;;18.60;99.90;;;;;;5043106;28;20495;-72
2023/08/25 06:17:19;;;;;;;43.25;19.75;;;18.60;99.90;;;;;;5042097;28;20107;-74
2023/08/25 06:19:45;;;;;;;40.20;20.48;;;18.60;99.90;;;;;;5009429;28;20159;-73
2023/08/25 06:22:11;;;;;;;44.78;19.65;;;18.60;99.90;;;;;;5042973;28;20502;-73
2023/08/25 06:24:36;;;;;;;45.67;18.27;;;18.70;99.90;;;;;;5044305;28;20145;-72
2023/08/25 06:27:02;;;;;;;33.25;17.15;;;18.70;99.90;;;;;;5016427;28;20079;-73
2023/08/25 06:29:29;;;;;;;31.02;17.33;;;18.70;99.90;;;;;;5041506;28;20584;-74
2023/08/25 06:31:56;;;;;;;33.00;17.83;;;18.70;99.90;;;;;;5033105;28;20115;-73
2023/08/25 06:34:21;;;;;;;33.30;16.75;;;18.70;99.90;;;;;;5042822;28;20072;-73
2023/08/25 06:36:47;;;;;;;28.42;16.88;;;18.70;99.90;;;;;;5042592;28;20507;-74
2023/08/25 06:39:13;;;;;;;32.40;16.83;;;18.70;99.90;;;;;;5025121;28;20484;-73
2023/08/25 06:41:38;;;;;;;37.78;18.55;;;18.70;99.90;;;;;;5023856;28;20549;-72
2023/08/25 06:44:04;;;;;;;34.08;17.42;;;18.70;99.90;;;;;;5043449;28;20052;-73
2023/08/25 06:46:29;;;;;;;32.05;17.77;;;18.70;99.90;;;;;;5025063;28;20329;-73
2023/08/25 06:48:55;;;;;;;29.63;17.58;;;18.70;99.90;;;;;;5025535;28;20464;-74
2023/08/25 06:51:21;;;;;;;33.05;19.23;;;18.70;99.90;;;;;;5043269;28;20033;-73
2023/08/25 06:53:46;;;;;;;32.85;17.98;;;18.70;99.90;;;;;;5043242;28;20053;-72
2023/08/25 06:56:12;;;;;;;31.83;17.55;;;18.80;99.90;;;;;;5023751;28;20526;-72
2023/08/25 06:58:37;;;;;;;30.85;17.23;;;18.80;99.90;;;;;;5043472;28;20048;-76
2023/08/25 07:01:04;;;;;;;33.22;16.50;;;18.80;99.90;;;;;;5025595;28;20049;-75
2023/08/25 07:03:29;;;;;;;34.25;17.75;;;18.80;99.90;;;;;;5042968;28;20087;-72
2023/08/25 07:05:58;;;;;;;31.70;17.27;;;18.80;99.90;;;;;;5042781;28;20072;-72
2023/08/25 07:08:25;;;;;;;32.60;17.83;;;18.80;99.90;;;;;;5042233;28;20127;-73
2023/08/25 07:10:51;;;;;;;32.42;16.73;;;18.80;99.90;;;;;;5024812;28;20045;-73
2023/08/25 07:13:17;;;;;;;33.38;17.55;;;18.90;99.90;;;;;;5040070;28;20052;-74
2023/08/25 07:15:43;;;;;;;35.03;18.48;;;18.90;99.90;;;;;;5025233;28;20415;-73
2023/08/25 07:18:09;;;;;;;33.13;17.08;;;18.90;99.90;;;;;;5024647;28;20111;-75
2023/08/25 07:20:34;;;;;;;37.90;18.42;;;18.90;99.90;;;;;;5043063;28;20462;-72
2023/08/25 07:23:00;;;;;;;34.08;17.33;;;18.90;99.90;;;;;;5042982;28;20245;-74
2023/08/25 07:25:26;;;;;;;36.28;18.73;;;18.90;99.90;;;;;;5043470;28;20048;-74
2023/08/25 07:27:51;;;;;;;34.63;16.00;;;19.00;99.90;;;;;;5052679;28;20041;-73
2023/08/25 07:30:17;;;;;;;43.42;18.98;;;18.90;99.90;;;;;;5045088;28;20186;-73
2023/08/25 07:32:43;;;;;;;36.38;19.38;;;19.00;99.90;;;;;;5045163;28;20050;-73
2023/08/25 07:35:08;;;;;;;37.25;16.92;;;19.00;99.90;;;;;;5045182;28;20483;-74
2023/08/25 07:37:34;;;;;;;33.58;17.80;;;19.00;99.90;;;;;;5047351;28;20055;-74
2023/08/25 07:40:00;;;;;;;39.17;16.92;;;19.10;99.90;;;;;;5045148;28;20403;-71
2023/08/25 07:42:26;;;;;;;32.58;15.75;;;19.10;99.90;;;;;;5044028;28;20045;-72
2023/08/25 07:44:52;;;;;;;42.17;18.00;;;19.10;99.90;;;;;;5028517;28;20187;-73
2023/08/25 07:47:18;;;;;;;42.67;17.13;;;19.20;99.90;;;;;;5046201;28;20120;-72
2023/08/25 07:49:44;;;;;;;39.20;15.77;;;19.10;99.90;;;;;;5045522;28;20049;-73
2023/08/25 07:52:09;;;;;;;33.92;16.80;;;19.20;99.90;;;;;;5046083;28;20045;-73
2023/08/25 07:54:35;;;;;;;27.10;14.63;;;19.10;99.90;;;;;;5047233;28;20033;-72
2023/08/25 07:57:01;;;;;;;30.13;15.82;;;19.10;99.90;;;;;;5045324;28;20142;-72
2023/08/25 07:59:27;;;;;;;36.28;18.95;;;19.20;99.90;;;;;;5045591;28;20504;-73
2023/08/25 08:01:52;;;;;;;40.92;19.15;;;19.20;99.90;;;;;;5044978;28;20044;-73
2023/08/25 08:04:18;;;;;;;38.35;16.52;;;19.20;99.90;;;;;;5046123;28;20037;-72
2023/08/25 08:06:44;;;;;;;43.05;18.35;;;19.20;99.90;;;;;;5028132;28;20037;-73
2023/08/25 08:09:10;;;;;;;34.85;18.98;;;19.20;99.90;;;;;;5045885;28;20075;-73
2023/08/25 08:11:35;;;;;;;34.03;15.20;;;19.30;99.90;;;;;;5044277;28;20106;-74
2023/08/25 08:14:02;;;;;;;35.70;17.67;;;19.20;99.90;;;;;;5028358;28;20136;-74
2023/08/25 08:16:28;;;;;;;37.20;17.30;;;19.30;99.90;;;;;;5044449;28;20091;-73
2023/08/25 08:18:54;;;;;;;35.38;16.45;;;19.30;99.90;;;;;;5027838;28;20041;-72
2023/08/25 08:21:19;;;;;;;42.17;16.88;;;19.30;99.90;;;;;;5044102;28;20458;-72
2023/08/25 08:23:45;;;;;;;41.00;18.55;;;19.30;99.90;;;;;;5044357;28;20044;-75
2023/08/25 08:26:11;;;;;;;38.13;18.20;;;19.30;99.90;;;;;;5026945;28;20504;-73
2023/08/25 08:28:36;;;;;;;34.63;17.90;;;19.40;99.90;;;;;;5046402;28;20061;-73
2023/08/25 08:31:05;;;;;;;37.72;17.77;;;19.40;99.90;;;;;;5044146;28;20033;-73
2023/08/25 08:33:32;;;;;;;36.60;16.25;;;19.50;99.90;;;;;;5045439;28;20037;-72
2023/08/25 08:35:58;;;;;;;32.03;16.60;;;19.50;99.90;;;;;;5026821;28;20084;-73
2023/08/25 08:38:23;;;;;;;40.50;19.02;;;19.60;99.90;;;;;;5026566;28;20099;-73
2023/08/25 08:40:50;;;;;;;43.03;18.95;;;19.70;99.90;;;;;;5027219;28;20037;-76
2023/08/25 08:43:17;;;;;;;35.63;18.20;;;19.70;99.90;;;;;;5044527;28;20571;-72
2023/08/25 08:45:44;;;;;;;30.30;17.60;;;19.80;99.90;;;;;;5039938;28;20037;-72
2023/08/25 08:48:13;;;;;;;38.22;18.33;;;19.80;99.90;;;;;;5039053;28;20052;-72
2023/08/25 08:50:39;;;;;;;35.00;17.67;;;19.80;99.90;;;;;;5040869;28;20041;-72
2023/08/25 08:53:06;;;;;;;32.22;17.10;;;19.80;99.90;;;;;;5008180;28;20140;-73
2023/08/25 08:55:34;;;;;;;38.03;18.23;;;19.90;99.90;;;;;;5024786;28;20049;-72
2023/08/25 08:57:59;;;;;;;28.23;16.05;;;19.90;99.90;;;;;;5022993;28;20124;-74
2023/08/25 09:00:26;;;;;;;32.17;16.52;;;19.90;99.90;;;;;;5025919;28;20457;-73
2023/08/25 09:02:55;;;;;;;34.83;16.27;;;19.90;99.90;;;;;;5021800;28;20042;-74
2023/08/25 09:05:27;;;;;;;29.13;15.20;;;19.90;99.90;;;;;;5043939;28;20045;-73
2023/08/25 09:07:57;;;;;;;32.88;15.57;;;19.90;99.90;;;;;;5015391;28;20038;-73
2023/08/25 09:10:27;;;;;;;32.75;15.10;;;19.90;99.90;;;;;;5007140;28;20041;-73
2023/08/25 09:12:53;;;;;;;28.05;15.43;;;19.90;99.90;;;;;;5006738;28;20053;-73
2023/08/25 09:15:26;;;;;;;27.40;15.20;;;20.00;99.90;;;;;;5007174;28;20052;-73
2023/08/25 09:18:03;;;;;;;31.73;15.30;;;20.00;99.90;;;;;;5035084;28;20045;-73
2023/08/25 09:20:32;;;;;;;28.33;14.45;;;20.00;99.90;;;;;;5043425;28;20049;-73
2023/08/25 09:22:57;;;;;;;25.50;14.50;;;20.00;99.90;;;;;;5014731;28;20049;-73
2023/08/25 09:25:24;;;;;;;29.15;14.23;;;20.10;99.90;;;;;;5030320;28;20375;-71
2023/08/25 09:27:59;;;;;;;28.15;15.98;;;20.10;99.90;;;;;;5014754;28;20042;-73
2023/08/25 09:30:43;;;;;;;27.92;14.02;;;20.20;99.90;;;;;;4998694;28;20171;-72
2023/08/25 09:33:13;;;;;;;28.30;14.52;;;20.20;99.90;;;;;;5006805;28;20059;-74
2023/08/25 09:35:40;;;;;;;27.80;14.70;;;20.20;99.90;;;;;;5025288;28;20034;-74
2023/08/25 09:38:07;;;;;;;26.55;15.18;;;20.20;99.90;;;;;;5024279;28;20290;-72
2023/08/25 09:40:36;;;;;;;28.05;15.02;;;20.20;99.90;;;;;;5037216;28;20053;-73
2023/08/25 09:43:03;;;;;;;32.17;16.35;;;20.20;99.90;;;;;;5026208;28;20075;-70
2023/08/25 09:45:31;;;;;;;33.17;14.75;;;20.20;99.90;;;;;;5040434;28;20045;-70
2023/08/25 09:48:13;;;;;;;31.25;15.48;;;20.30;99.90;;;;;;5032290;28;20041;-70
2023/08/25 09:50:43;;;;;;;33.22;14.55;;;20.30;99.90;;;;;;5044230;28;20284;-70
2023/08/25 09:53:12;;;;;;;26.80;14.73;;;20.30;99.90;;;;;;5006832;28;20046;-71
2023/08/25 09:55:39;;;;;;;28.15;14.65;;;20.30;99.90;;;;;;5023442;28;20037;-73
2023/08/25 09:58:07;;;;;;;28.20;13.95;;;20.30;99.90;;;;;;5007204;28;20076;-69
2023/08/25 10:00:37;;;;;;;25.75;14.52;;;20.30;99.90;;;;;;4990338;28;20051;-70
2023/08/25 10:03:05;;;;;;;25.25;13.63;;;20.30;99.90;;;;;;5025120;28;20041;-70
2023/08/25 10:05:34;;;;;;;32.40;16.35;;;20.30;99.90;;;;;;5025610;28;20069;-70
2023/08/25 10:08:00;;;;;;;25.75;13.43;;;20.40;99.90;;;;;;5026161;28;20036;-70
2023/08/25 10:10:29;;;;;;;33.53;16.95;;;20.40;99.90;;;;;;5009304;28;20040;-71
2023/08/25 10:12:57;;;;;;;32.85;15.18;;;20.40;99.90;;;;;;5021881;28;20041;-70
2023/08/25 10:15:30;;;;;;;25.45;13.70;;;20.50;99.90;;;;;;5022610;28;20439;-70
2023/08/25 10:18:00;;;;;;;26.90;14.60;;;20.50;99.90;;;;;;5024127;28;20077;-71
2023/08/25 10:20:26;;;;;;;31.95;15.23;;;20.50;99.90;;;;;;5022200;28;20052;-71
2023/08/25 10:22:53;;;;;;;25.90;13.85;;;20.50;99.90;;;;;;5020220;28;20471;-71
2023/08/25 10:25:19;;;;;;;27.17;15.00;;;20.50;99.90;;;;;;5007407;28;20042;-72
2023/08/25 10:27:45;;;;;;;29.10;14.95;;;20.50;99.90;;;;;;5013203;28;20037;-70
2023/08/25 10:30:12;;;;;;;34.50;14.30;;;20.50;99.90;;;;;;5016988;28;20042;-71
2023/08/25 10:32:50;;;;;;;30.55;14.55;;;20.40;99.90;;;;;;5004275;28;20125;-74
2023/08/25 10:35:16;;;;;;;27.20;13.95;;;20.50;99.90;;;;;;5003475;28;20128;-71
2023/08/25 10:37:42;;;;;;;26.10;13.00;;;20.50;99.90;;;;;;5034013;28;20112;-70
2023/08/25 10:40:10;;;;;;;29.83;16.60;;;20.50;99.90;;;;;;5038358;28;20127;-74
2023/08/25 10:42:35;;;;;;;26.90;14.93;;;20.50;99.90;;;;;;5017941;28;20518;-72
2023/08/25 10:45:03;;;;;;;26.13;13.85;;;20.50;99.90;;;;;;5003028;28;20053;-70
2023/08/25 10:47:29;;;;;;;22.75;13.18;;;20.60;99.90;;;;;;5003070;28;20293;-70
2023/08/25 10:50:00;;;;;;;23.58;14.20;;;20.50;99.90;;;;;;5002573;28;20049;-70
2023/08/25 10:52:26;;;;;;;30.10;15.45;;;20.60;99.90;;;;;;5006484;28;20516;-70
2023/08/25 10:54:53;;;;;;;25.38;14.05;;;20.60;99.90;;;;;;5021265;28;20071;-71
2023/08/25 10:57:19;;;;;;;21.05;13.68;;;20.70;99.90;;;;;;5019566;28;20310;-71
2023/08/25 11:00:28;;;;;;;22.13;12.75;;;20.70;99.90;;;;;;5015867;28;20045;-70
2023/08/25 11:02:54;;;;;;;24.85;13.18;;;20.70;99.90;;;;;;4992152;28;20043;-71
2023/08/25 11:05:29;;;;;;;26.00;12.18;;;20.70;99.90;;;;;;5017282;28;20045;-70
2023/08/25 11:07:55;;;;;;;24.00;13.10;;;20.70;99.90;;;;;;5019737;28;20060;-72
2023/08/25 11:10:21;;;;;;;26.30;12.95;;;20.70;99.90;;;;;;5013431;28;20496;-70
2023/08/25 11:12:51;;;;;;;22.35;13.20;;;20.80;99.90;;;;;;5021975;28;20049;-71
2023/08/25 11:15:17;;;;;;;26.83;12.38;;;20.80;99.90;;;;;;5023340;28;20060;-70
2023/08/25 11:17:46;;;;;;;19.83;12.18;;;20.80;99.90;;;;;;5022249;28;20049;-70
2023/08/25 11:20:12;;;;;;;19.02;12.63;;;20.90;99.90;;;;;;5022507;28;20049;-71
2023/08/25 11:22:57;;;;;;;23.95;11.50;;;20.90;99.90;;;;;;5022239;28;20045;-73
2023/08/25 11:25:24;;;;;;;18.92;11.13;;;20.90;99.90;;;;;;5021602;28;20060;-71
2023/08/25 11:27:53;;;;;;;17.52;10.73;;;20.90;99.90;;;;;;5021867;28;20073;-73
2023/08/25 11:30:20;;;;;;;20.27;12.85;;;20.90;99.90;;;;;;5005724;28;20244;-73
2023/08/25 11:32:49;;;;;;;19.02;10.73;;;20.90;99.90;;;;;;5005908;28;20045;-74
2023/08/25 11:35:16;;;;;;;18.80;11.63;;;20.90;99.90;;;;;;5023207;28;20033;-73
2023/08/25 11:37:44;;;;;;;23.77;10.85;;;20.90;99.90;;;;;;5021562;28;20400;-73
2023/08/25 11:40:13;;;;;;;16.08;11.30;;;20.90;99.90;;;;;;5022173;28;20045;-73
2023/08/25 11:42:40;;;;;;;17.20;10.50;;;20.90;99.90;;;;;;5022237;28;20438;-73
2023/08/25 11:45:09;;;;;;;16.63;10.15;;;20.90;99.90;;;;;;5023122;28;20452;-72
2023/08/25 11:47:35;;;;;;;16.50;10.82;;;20.90;99.90;;;;;;5022826;28;20053;-71
2023/08/25 11:50:04;;;;;;;19.80;10.07;;;20.90;99.90;;;;;;5038739;28;20041;-71
2023/08/25 11:52:30;;;;;;;17.55;10.18;;;21.00;99.90;;;;;;5038808;28;20104;-71
2023/08/25 11:54:56;;;;;;;15.10;10.32;;;21.10;99.90;;;;;;5022433;28;20033;-71
2023/08/25 11:57:33;;;;;;;18.65;10.85;;;21.10;99.90;;;;;;5020804;28;20569;-72
2023/08/25 12:00:03;;;;;;;17.17;9.55;;;21.10;99.90;;;;;;5022491;28;20063;-71
2023/08/25 12:02:29;;;;;;;18.35;9.98;;;21.10;99.90;;;;;;5023421;28;20546;-72
2023/08/25 12:04:56;;;;;;;16.48;10.32;;;21.20;99.90;;;;;;5022836;28;20488;-72
2023/08/25 12:07:23;;;;;;;18.42;9.85;;;21.20;99.90;;;;;;5023232;28;20045;-74
2023/08/25 12:10:06;;;;;;;17.98;10.73;;;21.30;99.90;;;;;;5023533;28;20091;-72
2023/08/25 12:12:37;;;;;;;20.25;10.35;;;21.40;99.90;;;;;;5022955;28;20046;-72
2023/08/25 12:15:06;;;;;;;14.75;10.25;;;21.40;99.90;;;;;;5042530;28;20049;-73
2023/08/25 12:17:34;;;;;;;16.52;9.95;;;21.40;99.90;;;;;;5025402;28;20060;-71
2023/08/25 12:20:09;;;;;;;19.27;10.55;;;21.40;99.90;;;;;;5025812;28;20072;-71
2023/08/25 12:22:35;;;;;;;18.83;10.65;;;21.40;99.90;;;;;;5009722;28;20393;-72
2023/08/25 12:25:00;;;;;;;24.13;10.38;;;21.40;99.90;;;;;;5026081;28;20056;-71